Time;durP1;ratioP1;P1;durP2;ratioP2;P2;SDS_P1;SDS_P2;PMS_P1;PMS_P2;Temp;Humidity;BMP_temperature;BMP_pressure;BME280_temperature;BME280_humidity;BME280_pressure;Samples;Min_cycle;Max_cycle;Signal;HPM_P1;HPM_P2
2023/01/16 00:02:14;;;;;;;7.57;2.40;;;;;;;;;;5048364;28;20491;-68
2023/01/16 00:04:40;;;;;;;5.70;2.47;;;;;;;;;;5048730;28;20033;-68
2023/01/16 00:07:06;;;;;;;8.23;2.42;;;;;;;;;;5048219;28;20099;-68
2023/01/16 00:09:32;;;;;;;4.53;2.55;;;;;;;;;;5048505;28;20508;-68
2023/01/16 00:11:58;;;;;;;6.13;2.78;;;;;;;;;;5048356;28;20048;-68
2023/01/16 00:14:24;;;;;;;8.45;2.30;;;;;;;;;;5030203;28;20105;-68
2023/01/16 00:16:50;;;;;;;4.57;2.15;;;;;;;;;;5030366;28;20130;-68
2023/01/16 00:19:16;;;;;;;7.13;2.67;;;;;;;;;;5030340;28;20111;-68
2023/01/16 00:21:44;;;;;;;8.32;2.70;;;;;;;;;;5029947;28;20177;-68
2023/01/16 00:24:10;;;;;;;6.25;2.42;;;;;;;;;;5030321;28;20049;-68
2023/01/16 00:26:36;;;;;;;11.73;2.67;;;;;;;;;;5048444;28;20045;-68
2023/01/16 00:29:02;;;;;;;10.25;2.63;;;;;;;;;;5048223;28;20128;-68
2023/01/16 00:31:28;;;;;;;7.90;2.40;;;;;;;;;;5030708;28;20521;-68
2023/01/16 00:33:54;;;;;;;7.35;2.95;;;;;;;;;;5048516;28;20049;-68
2023/01/16 00:36:20;;;;;;;8.70;2.38;;;;;;;;;;5048037;28;20045;-68
2023/01/16 00:38:46;;;;;;;6.80;2.70;;;;;;;;;;5048481;28;20451;-68
2023/01/16 00:41:12;;;;;;;5.40;2.13;;;;;;;;;;5032583;28;20049;-68
2023/01/16 00:43:38;;;;;;;6.97;2.33;;;;;;;;;;5051386;28;20041;-68
2023/01/16 00:46:04;;;;;;;7.75;2.70;;;;;;;;;;5052114;28;20098;-68
2023/01/16 00:48:30;;;;;;;7.40;2.70;;;;;;;;;;5051948;28;20041;-68
2023/01/16 00:50:56;;;;;;;9.18;2.60;;;;;;;;;;5051452;28;20036;-68
2023/01/16 00:53:22;;;;;;;9.10;2.58;;;;;;;;;;5051687;28;20067;-68
2023/01/16 00:55:50;;;;;;;5.90;2.33;;;;;;;;;;5051485;28;20443;-68
2023/01/16 00:58:16;;;;;;;7.20;2.95;;;;;;;;;;5051279;28;20567;-68
2023/01/16 01:00:42;;;;;;;8.85;2.75;;;;;;;;;;5051662;28;20373;-68
2023/01/16 01:03:08;;;;;;;6.22;2.53;;;;;;;;;;5051225;28;20545;-68
2023/01/16 01:05:38;;;;;;;6.35;2.30;;;;;;;;;;5051351;28;20048;-68
2023/01/16 01:08:05;;;;;;;4.85;2.42;;;;;;;;;;5033578;28;20039;-68
2023/01/16 01:10:31;;;;;;;8.23;2.70;;;;;;;;;;5051442;28;20041;-68
2023/01/16 01:12:57;;;;;;;8.90;2.45;;;;;;;;;;5050936;28;20048;-68
2023/01/16 01:15:23;;;;;;;11.07;2.60;;;;;;;;;;5033280;28;20037;-68
2023/01/16 01:17:49;;;;;;;6.60;2.30;;;;;;;;;;5033040;28;20073;-68
2023/01/16 01:20:16;;;;;;;5.43;2.42;;;;;;;;;;5050576;28;20045;-68
2023/01/16 01:22:42;;;;;;;8.25;2.70;;;;;;;;;;5033128;28;20514;-68
2023/01/16 01:25:08;;;;;;;6.43;2.20;;;;;;;;;;5051200;28;20044;-68
2023/01/16 01:27:34;;;;;;;8.45;2.33;;;;;;;;;;5032627;28;20047;-68
2023/01/16 01:30:00;;;;;;;9.48;2.50;;;;;;;;;;5050691;28;20459;-68
2023/01/16 01:32:26;;;;;;;5.40;2.42;;;;;;;;;;5050990;28;20072;-68
2023/01/16 01:34:52;;;;;;;8.10;2.38;;;;;;;;;;5050736;28;20043;-68
2023/01/16 01:37:18;;;;;;;6.40;2.10;;;;;;;;;;5050926;28;20420;-68
2023/01/16 01:39:44;;;;;;;6.85;2.30;;;;;;;;;;5050498;28;20047;-68
2023/01/16 01:44:55;;;;;;;6.43;2.42;;;;;;;;;;5050582;28;20041;-68
2023/01/16 01:47:24;;;;;;;5.68;3.13;;;;;;;;;;5032584;28;20037;-68
2023/01/16 01:49:50;;;;;;;8.82;2.38;;;;;;;;;;5032107;28;20103;-68
2023/01/16 01:52:18;;;;;;;10.45;2.25;;;;;;;;;;5050507;28;20045;-68
2023/01/16 01:54:50;;;;;;;6.68;2.80;;;;;;;;;;5032631;28;20093;-68
2023/01/16 01:57:22;;;;;;;5.55;2.10;;;;;;;;;;5049145;28;20522;-68
2023/01/16 01:59:55;;;;;;;5.45;1.92;;;;;;;;;;5050465;28;20041;-68
2023/01/16 02:02:23;;;;;;;6.25;2.20;;;;;;;;;;5032792;28;20254;-68
2023/01/16 02:04:51;;;;;;;3.88;2.15;;;;;;;;;;5049662;28;20043;-68
2023/01/16 02:07:19;;;;;;;10.95;2.30;;;;;;;;;;5050512;28;20483;-68
2023/01/16 02:09:45;;;;;;;7.43;2.10;;;;;;;;;;5050396;28;20048;-68
2023/01/16 02:12:13;;;;;;;5.43;2.15;;;;;;;;;;5032366;28;20475;-68
2023/01/16 02:14:40;;;;;;;5.53;2.10;;;;;;;;;;5049774;28;20037;-68
2023/01/16 02:20:12;;;;;;;8.25;2.25;;;;;;;;;;5049265;28;20049;-68
2023/01/16 02:22:50;;;;;;;10.10;2.45;;;;;;;;;;5048866;28;20053;-68
2023/01/16 02:25:27;;;;;;;9.23;2.08;;;;;;;;;;5049660;28;20044;-68
2023/01/16 02:28:11;;;;;;;8.60;2.13;;;;;;;;;;5031849;28;20029;-68
2023/01/16 02:30:56;;;;;;;3.90;2.15;;;;;;;;;;5050007;28;20063;-68
2023/01/16 02:33:41;;;;;;;6.88;2.58;;;;;;;;;;5049469;28;20514;-68
2023/01/16 02:36:19;;;;;;;4.47;2.47;;;;;;;;;;5049746;28;20529;-68
2023/01/16 02:38:56;;;;;;;5.85;2.53;;;;;;;;;;5031780;28;20049;-68
2023/01/16 02:41:22;;;;;;;5.30;2.40;;;;;;;;;;5031183;28;20077;-68
2023/01/16 02:44:10;;;;;;;7.53;2.67;;;;;;;;;;5049444;28;20076;-68
2023/01/16 02:46:45;;;;;;;7.57;3.15;;;;;;;;;;5049556;28;20094;-68
2023/01/16 02:49:33;;;;;;;7.88;2.28;;;;;;;;;;5049136;28;20483;-68
2023/01/16 02:52:13;;;;;;;13.30;3.10;;;;;;;;;;5031187;28;20059;-68
2023/01/16 02:54:45;;;;;;;5.53;2.63;;;;;;;;;;5049310;28;20040;-68
2023/01/16 02:57:13;;;;;;;6.43;2.90;;;;;;;;;;5048919;28;20045;-68
2023/01/16 02:59:40;;;;;;;6.57;2.80;;;;;;;;;;5049413;28;20049;-68
2023/01/16 03:02:06;;;;;;;7.90;2.90;;;;;;;;;;5030725;28;20045;-68
2023/01/16 03:04:43;;;;;;;9.00;3.08;;;;;;;;;;5030469;28;20510;-68
2023/01/16 03:07:15;;;;;;;4.45;2.80;;;;;;;;;;5031005;28;20041;-68
2023/01/16 03:10:05;;;;;;;7.38;3.40;;;;;;;;;;5030974;28;20041;-68
2023/01/16 03:12:34;;;;;;;5.72;2.95;;;;;;;;;;5011362;28;20049;-68
2023/01/16 03:15:00;;;;;;;8.23;3.97;;;;;;;;;;5049102;28;20053;-68
2023/01/16 03:17:39;;;;;;;6.00;3.47;;;;;;;;;;5031412;28;20499;-68
2023/01/16 03:20:11;;;;;;;4.72;3.13;;;;;;;;;;5030840;28;20454;-68
2023/01/16 03:22:49;;;;;;;10.25;3.97;;;;;;;;;;5030973;28;20406;-68
2023/01/16 03:25:25;;;;;;;5.40;3.40;;;;;;;;;;5048709;28;20036;-68
2023/01/16 03:28:23;;;;;;;10.02;3.50;;;;;;;;;;5030595;28;20057;-68
2023/01/16 03:31:00;;;;;;;6.63;3.60;;;;;;;;;;5004553;28;20098;-68
2023/01/16 03:33:42;;;;;;;9.77;3.70;;;;;;;;;;5048400;28;20487;-68
2023/01/16 03:36:11;;;;;;;8.02;4.00;;;;;;;;;;5048877;28;20120;-68
2023/01/16 03:38:38;;;;;;;9.70;4.10;;;;;;;;;;5048873;28;20565;-68
2023/01/16 03:41:06;;;;;;;8.27;4.30;;;;;;;;;;5030612;28;20045;-68
2023/01/16 03:43:36;;;;;;;6.75;3.92;;;;;;;;;;5030980;28;20502;-68
2023/01/16 03:46:07;;;;;;;6.75;3.65;;;;;;;;;;5030647;28;20040;-68
2023/01/16 03:48:38;;;;;;;9.00;4.40;;;;;;;;;;5030299;28;20399;-68
2023/01/16 03:51:06;;;;;;;9.05;4.38;;;;;;;;;;5030906;28;20045;-68
2023/01/16 03:53:55;;;;;;;9.13;3.78;;;;;;;;;;5048538;28;20055;-67
2023/01/16 03:56:27;;;;;;;8.80;4.10;;;;;;;;;;4994034;28;20479;-67
2023/01/16 03:58:54;;;;;;;7.32;4.50;;;;;;;;;;5048787;28;20076;-67
2023/01/16 04:01:45;;;;;;;9.40;4.75;;;;;;;;;;5030648;28;20049;-67
2023/01/16 04:04:25;;;;;;;8.55;4.40;;;;;;;;;;5048016;28;20178;-67
2023/01/16 04:07:12;;;;;;;9.45;4.88;;;;;;;;;;5048491;28;20407;-67
2023/01/16 04:09:53;;;;;;;11.32;4.82;;;;;;;;;;5030395;28;20120;-67
2023/01/16 04:12:22;;;;;;;8.02;4.22;;;;;;;;;;5030312;28;20410;-67
2023/01/16 04:14:52;;;;;;;7.47;5.32;;;;;;;;;;5050472;28;20041;-67
2023/01/16 04:17:18;;;;;;;15.95;6.00;;;;;;;;;;5017666;28;20053;-67
2023/01/16 04:19:45;;;;;;;10.60;5.68;;;;;;;;;;5051914;28;20053;-67
2023/01/16 04:22:19;;;;;;;9.80;5.55;;;;;;;;;;5034248;28;20049;-68
2023/01/16 04:24:45;;;;;;;9.80;5.88;;;;;;;;;;5033610;28;20057;-68
2023/01/16 04:27:11;;;;;;;11.25;7.03;;;;;;;;;;5051955;28;20050;-68
2023/01/16 04:29:37;;;;;;;14.23;7.95;;;;;;;;;;5052292;28;20107;-67
2023/01/16 04:32:03;;;;;;;13.45;8.75;;;;;;;;;;5052410;28;20080;-68
2023/01/16 04:34:29;;;;;;;16.92;8.27;;;;;;;;;;5033682;28;20037;-67
2023/01/16 04:36:55;;;;;;;14.95;7.60;;;;;;;;;;5051726;28;20048;-67
2023/01/16 04:39:21;;;;;;;13.80;8.75;;;;;;;;;;5051265;28;20037;-67
2023/01/16 04:41:50;;;;;;;14.02;8.65;;;;;;;;;;5051966;28;20037;-67
2023/01/16 04:44:16;;;;;;;12.82;8.73;;;;;;;;;;5033558;28;20423;-68
2023/01/16 04:46:42;;;;;;;15.93;9.32;;;;;;;;;;5033562;28;20079;-68
2023/01/16 04:49:08;;;;;;;15.52;9.75;;;;;;;;;;5017488;28;20110;-68
2023/01/16 04:51:35;;;;;;;17.90;10.88;;;;;;;;;;5017724;28;20049;-67
2023/01/16 04:54:02;;;;;;;18.30;10.30;;;;;;;;;;5051149;28;20392;-67
2023/01/16 04:56:28;;;;;;;17.08;9.57;;;;;;;;;;5033983;28;20044;-67
2023/01/16 04:58:54;;;;;;;15.75;9.90;;;;;;;;;;5051580;28;20098;-67
2023/01/16 05:01:20;;;;;;;14.55;9.82;;;;;;;;;;5050962;28;20120;-67
2023/01/16 05:03:46;;;;;;;19.05;10.18;;;;;;;;;;5032988;28;20039;-67
2023/01/16 05:06:12;;;;;;;18.23;10.38;;;;;;;;;;5051493;28;20040;-67
2023/01/16 05:08:38;;;;;;;15.73;9.90;;;;;;;;;;5051048;28;20045;-67
2023/01/16 05:11:04;;;;;;;14.77;10.40;;;;;;;;;;5051148;28;20050;-67
2023/01/16 05:13:30;;;;;;;21.08;10.27;;;;;;;;;;5051234;28;20045;-67
2023/01/16 05:15:56;;;;;;;16.08;10.13;;;;;;;;;;5033275;28;20483;-67
2023/01/16 05:18:23;;;;;;;17.00;9.60;;;;;;;;;;5051290;28;20483;-67
2023/01/16 05:20:49;;;;;;;15.43;10.48;;;;;;;;;;5050917;28;20403;-67
2023/01/16 05:23:15;;;;;;;15.63;9.48;;;;;;;;;;5051054;28;20052;-67
2023/01/16 05:25:41;;;;;;;21.10;10.15;;;;;;;;;;5032390;28;20454;-67
2023/01/16 05:28:07;;;;;;;16.55;9.13;;;;;;;;;;5033083;28;20048;-67
2023/01/16 05:30:33;;;;;;;16.52;9.55;;;;;;;;;;5050846;28;20063;-67
2023/01/16 05:32:59;;;;;;;15.85;9.18;;;;;;;;;;5050359;28;20048;-67
2023/01/16 05:35:25;;;;;;;14.88;8.68;;;;;;;;;;5050844;28;20502;-67
2023/01/16 05:37:51;;;;;;;20.48;10.07;;;;;;;;;;5050894;28;20483;-67
2023/01/16 05:40:17;;;;;;;18.15;9.27;;;;;;;;;;5051668;28;20047;-67
2023/01/16 05:42:44;;;;;;;18.20;8.63;;;;;;;;;;5034426;28;20123;-67
2023/01/16 05:45:10;;;;;;;19.63;9.18;;;;;;;;;;5052041;28;20060;-67
2023/01/16 05:47:36;;;;;;;14.40;8.45;;;;;;;;;;5033729;28;20266;-68
2023/01/16 05:50:03;;;;;;;12.50;7.75;;;;;;;;;;5034184;28;20537;-68
2023/01/16 05:52:29;;;;;;;19.38;9.23;;;;;;;;;;5052173;28;20037;-68
2023/01/16 05:54:55;;;;;;;15.25;8.90;;;;;;;;;;5034096;28;20061;-67
2023/01/16 05:57:22;;;;;;;13.93;8.20;;;;;;;;;;5051935;28;20116;-67
2023/01/16 05:59:49;;;;;;;16.20;8.07;;;;;;;;;;5052228;28;20052;-67
2023/01/16 06:02:15;;;;;;;16.52;8.02;;;;;;;;;;5033464;28;20600;-67
2023/01/16 06:04:41;;;;;;;12.48;6.78;;;;;;;;;;5051733;28;20458;-67
2023/01/16 06:07:07;;;;;;;13.10;6.90;;;;;;;;;;5034068;28;20072;-67
2023/01/16 06:09:33;;;;;;;12.75;6.60;;;;;;;;;;5050913;28;20112;-67
2023/01/16 06:11:59;;;;;;;15.10;7.15;;;;;;;;;;5031927;28;20519;-67
2023/01/16 06:14:25;;;;;;;14.25;7.00;;;;;;;;;;5032239;28;20079;-67
2023/01/16 06:16:51;;;;;;;12.82;7.07;;;;;;;;;;5050095;28;20128;-67
2023/01/16 06:19:17;;;;;;;14.48;6.68;;;;;;;;;;5049946;28;20060;-67
2023/01/16 06:21:43;;;;;;;14.45;5.93;;;;;;;;;;5049689;28;20071;-67
2023/01/16 06:24:09;;;;;;;11.27;6.40;;;;;;;;;;5049402;28;20045;-67
2023/01/16 06:26:35;;;;;;;13.02;6.40;;;;;;;;;;5031643;28;20500;-67
2023/01/16 06:29:01;;;;;;;13.70;5.95;;;;;;;;;;5049910;28;20057;-67
2023/01/16 06:31:28;;;;;;;14.75;6.38;;;;;;;;;;5031404;28;20587;-67
2023/01/16 06:33:54;;;;;;;13.40;5.93;;;;;;;;;;5032025;28;20547;-67
2023/01/16 06:36:20;;;;;;;9.95;6.03;;;;;;;;;;5049495;28;20455;-67
2023/01/16 06:38:46;;;;;;;13.38;5.82;;;;;;;;;;5047967;28;20120;-67
2023/01/16 06:41:12;;;;;;;13.15;5.88;;;;;;;;;;5031464;28;20448;-67
2023/01/16 06:43:38;;;;;;;12.70;6.35;;;;;;;;;;5049142;28;20037;-68
2023/01/16 06:46:04;;;;;;;8.88;5.13;;;;;;;;;;5048870;28;20041;-68
2023/01/16 06:48:31;;;;;;;10.65;5.25;;;;;;;;;;5031123;28;20048;-68
2023/01/16 06:50:58;;;;;;;6.85;4.78;;;;;;;;;;5031339;28;20056;-67
2023/01/16 06:53:25;;;;;;;7.47;4.65;;;;;;;;;;5048735;28;20055;-67
2023/01/16 06:55:50;;;;;;;9.30;5.13;;;;;;;;;;5031633;28;20095;-67
2023/01/16 06:58:16;;;;;;;12.50;5.65;;;;;;;;;;5049262;28;20479;-67
2023/01/16 07:00:43;;;;;;;11.50;5.05;;;;;;;;;;5031214;28;20107;-67
2023/01/16 07:03:09;;;;;;;7.57;4.85;;;;;;;;;;5030915;28;20138;-68
2023/01/16 07:05:35;;;;;;;9.70;4.68;;;;;;;;;;5030959;28;20090;-68
2023/01/16 07:08:02;;;;;;;15.05;4.63;;;;;;;;;;5048413;28;20041;-68
2023/01/16 07:10:29;;;;;;;9.60;4.55;;;;;;;;;;5049088;28;20495;-68
2023/01/16 07:12:55;;;;;;;8.10;4.25;;;;;;;;;;5048553;28;20449;-68
2023/01/16 07:23:38;;;;;;;11.32;4.25;;;;;;;;;;5030222;28;20045;-68
2023/01/16 07:26:05;;;;;;;6.85;3.75;;;;;;;;;;5049165;28;20130;-68
2023/01/16 07:28:32;;;;;;;11.68;4.18;;;;;;;;;;5048596;28;20072;-68
2023/01/16 07:30:58;;;;;;;9.15;4.25;;;;;;;;;;5048217;28;20340;-68
2023/01/16 07:33:24;;;;;;;8.68;4.10;;;;;;;;;;5030479;28;20049;-68
2023/01/16 07:35:50;;;;;;;12.32;4.50;;;;;;;;;;5048619;28;20545;-67
2023/01/16 07:38:16;;;;;;;11.35;4.03;;;;;;;;;;5008108;28;20049;-67
2023/01/16 07:40:42;;;;;;;9.02;3.97;;;;;;;;;;5023111;28;20547;-66
2023/01/16 07:43:08;;;;;;;9.65;4.65;;;;;;;;;;5047237;28;20156;-67
2023/01/16 07:45:34;;;;;;;10.32;4.25;;;;;;;;;;5047299;28;20625;-66
2023/01/16 07:48:03;;;;;;;6.45;4.30;;;;;;;;;;5046815;28;20040;-65
2023/01/16 07:50:29;;;;;;;9.43;3.75;;;;;;;;;;5050353;28;20048;-67
2023/01/16 07:52:55;;;;;;;9.73;3.88;;;;;;;;;;5051232;28;20040;-68
2023/01/16 07:55:21;;;;;;;13.45;4.70;;;;;;;;;;5051338;28;20041;-68
2023/01/16 07:57:47;;;;;;;9.98;3.97;;;;;;;;;;5051402;28;20041;-66
2023/01/16 08:00:14;;;;;;;8.02;3.88;;;;;;;;;;5051394;28;20041;-68
2023/01/16 08:02:40;;;;;;;12.82;4.53;;;;;;;;;;5032550;28;20116;-68
2023/01/16 08:05:06;;;;;;;11.80;4.72;;;;;;;;;;5050371;28;20049;-69
2023/01/16 08:07:32;;;;;;;9.98;4.53;;;;;;;;;;5033253;28;20037;-70
2023/01/16 08:09:58;;;;;;;11.07;4.20;;;;;;;;;;5032643;28;20044;-69
2023/01/16 08:12:24;;;;;;;8.25;4.50;;;;;;;;;;5033488;28;20090;-69
2023/01/16 08:14:50;;;;;;;13.75;4.43;;;;;;;;;;5015938;28;20056;-69
2023/01/16 08:17:17;;;;;;;9.10;4.43;;;;;;;;;;5034901;28;20045;-69
2023/01/16 08:19:43;;;;;;;8.82;4.18;;;;;;;;;;5033437;28;20060;-69
2023/01/16 08:22:09;;;;;;;9.38;4.22;;;;;;;;;;5032397;28;20052;-69
2023/01/16 08:24:35;;;;;;;11.50;4.20;;;;;;;;;;5033190;28;20422;-70
2023/01/16 08:27:01;;;;;;;8.43;4.45;;;;;;;;;;5033033;28;20045;-69
2023/01/16 08:29:27;;;;;;;9.63;4.20;;;;;;;;;;5032472;28;20044;-68
2023/01/16 08:31:53;;;;;;;8.63;4.40;;;;;;;;;;5033003;28;20132;-69
2023/01/16 08:34:19;;;;;;;11.45;4.40;;;;;;;;;;5051165;28;20037;-69
2023/01/16 08:36:45;;;;;;;9.13;4.32;;;;;;;;;;5031744;28;20041;-69
2023/01/16 08:39:12;;;;;;;8.32;4.20;;;;;;;;;;5032683;28;20036;-67
2023/01/16 08:52:39;;;;;;;9.43;4.35;;;;;;;;;;5031401;28;20055;-70
2023/01/16 08:55:06;;;;;;;8.70;3.53;;;;;;;;;;5032982;28;20045;-69
2023/01/16 08:57:33;;;;;;;7.78;3.50;;;;;;;;;;5050852;28;20036;-69
2023/01/16 08:59:59;;;;;;;7.78;3.90;;;;;;;;;;5030997;28;20120;-68
2023/01/16 09:02:26;;;;;;;8.07;3.53;;;;;;;;;;5031747;28;20170;-68
2023/01/16 09:04:53;;;;;;;7.85;3.38;;;;;;;;;;5031753;28;20086;-69
2023/01/16 09:07:19;;;;;;;9.60;3.35;;;;;;;;;;5031878;28;20047;-69
2023/01/16 09:09:46;;;;;;;8.77;3.30;;;;;;;;;;5031688;28;20033;-69
2023/01/16 09:14:57;;;;;;;11.35;2.50;;;;;;;;;;5031861;28;20056;-68
2023/01/16 09:17:24;;;;;;;5.10;3.22;;;;;;;;;;5032331;28;20494;-69
2023/01/16 09:19:51;;;;;;;4.68;3.15;;;;;;;;;;5031338;28;20053;-69
2023/01/16 09:22:17;;;;;;;14.57;3.80;;;;;;;;;;5031590;28;20415;-69
2023/01/16 09:24:44;;;;;;;6.25;3.03;;;;;;;;;;5031425;28;20080;-70
2023/01/16 09:27:10;;;;;;;6.68;2.85;;;;;;;;;;5032046;28;20048;-69
2023/01/16 09:29:36;;;;;;;5.47;3.38;;;;;;;;;;5023974;28;20091;-69
2023/01/16 09:32:07;;;;;;;4.97;2.95;;;;;;;;;;5004146;28;20044;-69
2023/01/16 09:34:33;;;;;;;7.70;2.70;;;;;;;;;;5031959;28;20152;-70
2023/01/16 09:37:00;;;;;;;3.35;3.00;;;;;;;;;;5023165;28;20041;-69
2023/01/16 09:39:26;;;;;;;6.63;2.83;;;;;;;;;;5031007;28;20037;-69
2023/01/16 09:44:40;;;;;;;9.50;2.50;;;;;;;;;;5030652;28;20129;-70
2023/01/16 09:47:09;;;;;;;6.60;2.70;;;;;;;;;;5031316;28;20406;-71
2023/01/16 09:49:46;;;;;;;5.13;3.17;;;;;;;;;;5031345;28;20049;-70
2023/01/16 10:00:35;;;;;;;6.60;3.08;;;;;;;;;;5031051;28;20048;-70
2023/01/16 10:03:01;;;;;;;9.88;3.22;;;;;;;;;;5031486;28;20041;-70
2023/01/16 10:05:32;;;;;;;5.95;2.35;;;;;;;;;;5030823;28;20176;-70
2023/01/16 10:08:04;;;;;;;4.88;2.03;;;;;;;;;;5030997;28;20043;-69
2023/01/16 10:10:42;;;;;;;4.35;2.30;;;;;;;;;;5031061;28;20041;-70
2023/01/16 10:13:20;;;;;;;7.35;2.85;;;;;;;;;;5030457;28;20406;-70
2023/01/16 10:15:51;;;;;;;5.60;2.00;;;;;;;;;;5031261;28;20120;-69
2023/01/16 10:18:25;;;;;;;3.25;1.70;;;;;;;;;;5030488;28;20423;-69
2023/01/16 10:21:09;;;;;;;5.03;1.52;;;;;;;;;;5029869;28;20052;-67
2023/01/16 10:23:44;;;;;;;5.65;1.50;;;;;;;;;;5031518;28;20041;-67
2023/01/16 10:26:17;;;;;;;2.20;1.15;;;;;;;;;;5030336;28;20033;-67
2023/01/16 10:28:56;;;;;;;3.97;1.15;;;;;;;;;;5031880;28;20037;-67
2023/01/16 10:31:25;;;;;;;2.67;1.27;;;;;;;;;;5050612;28;20115;-68
2023/01/16 10:34:11;;;;;;;2.55;1.27;;;;;;;;;;5015977;28;20186;-67
2023/01/16 10:36:43;;;;;;;3.58;1.42;;;;;;;;;;5042799;28;20049;-67
2023/01/16 10:39:11;;;;;;;4.47;1.40;;;;;;;;;;5032283;28;20586;-67
2023/01/16 10:50:05;;;;;;;2.30;1.23;;;;;;;;;;5047182;28;20107;-68
2023/01/16 10:52:32;;;;;;;1.50;1.40;;;;;;;;;;5027575;28;20045;-64
2023/01/16 10:54:58;;;;;;;3.83;1.40;;;;;;;;;;5046961;28;20048;-58
2023/01/16 10:57:24;;;;;;;2.90;1.75;;;;;;;;;;5044797;28;20043;-61
2023/01/16 10:59:52;;;;;;;2.38;1.25;;;;;;;;;;5048486;28;20060;-59
2023/01/16 11:02:33;;;;;;;2.63;1.65;;;;;;;;;;5048106;28;20048;-59
2023/01/16 11:05:01;;;;;;;2.42;1.25;;;;;;;;;;5044724;28;20502;-59
2023/01/16 11:07:28;;;;;;;2.50;1.50;;;;;;;;;;5045266;28;20047;-60
2023/01/16 11:09:54;;;;;;;2.28;1.65;;;;;;;;;;5048353;28;20037;-59
2023/01/16 11:20:45;;;;;;;4.68;1.98;;;;;;;;;;5047504;28;20431;-60
2023/01/16 11:23:20;;;;;;;4.50;3.00;;;;;;;;;;5045193;28;20053;-60
2023/01/16 11:25:47;;;;;;;3.05;2.28;;;;;;;;;;5046006;28;20041;-60
2023/01/16 11:28:17;;;;;;;3.67;1.83;;;;;;;;;;5046230;28;20067;-60
2023/01/16 11:30:45;;;;;;;2.42;2.08;;;;;;;;;;5048720;28;20502;-60
2023/01/16 11:33:19;;;;;;;1.85;1.60;;;;;;;;;;5043163;28;20041;-61
2023/01/16 11:35:51;;;;;;;2.40;1.90;;;;;;;;;;5043678;28;20360;-61
2023/01/16 11:38:17;;;;;;;4.07;2.28;;;;;;;;;;5047488;28;20071;-61
2023/01/16 11:40:45;;;;;;;2.45;1.85;;;;;;;;;;5022317;28;20049;-61
2023/01/16 11:46:11;;;;;;;2.72;1.60;;;;;;;;;;5045018;28;20659;-60
2023/01/16 11:48:39;;;;;;;3.25;1.80;;;;;;;;;;5047854;28;20041;-59
2023/01/16 11:51:06;;;;;;;2.55;1.90;;;;;;;;;;5047191;28;20075;-61
2023/01/16 11:53:34;;;;;;;4.45;1.88;;;;;;;;;;5046590;28;20052;-61
2023/01/16 11:56:00;;;;;;;3.60;1.75;;;;;;;;;;5044863;28;20037;-59
2023/01/16 11:58:29;;;;;;;3.65;1.95;;;;;;;;;;5047849;28;20041;-60
2023/01/16 12:01:09;;;;;;;3.35;1.83;;;;;;;;;;5048217;28;20052;-61
2023/01/16 12:03:41;;;;;;;4.45;2.33;;;;;;;;;;5045316;28;20029;-61
2023/01/16 12:06:29;;;;;;;2.30;1.70;;;;;;;;;;5047096;28;20041;-60
2023/01/16 12:09:14;;;;;;;3.25;1.80;;;;;;;;;;5048286;28;20061;-60
2023/01/16 12:11:46;;;;;;;5.13;2.03;;;;;;;;;;5048334;28;20106;-60
2023/01/16 12:14:24;;;;;;;2.35;2.00;;;;;;;;;;5048532;28;20098;-61
2023/01/16 12:16:50;;;;;;;4.30;1.95;;;;;;;;;;5048527;28;20163;-59
2023/01/16 12:19:34;;;;;;;6.32;1.92;;;;;;;;;;5048290;28;20127;-59
2023/01/16 12:22:00;;;;;;;3.95;1.73;;;;;;;;;;5047949;28;20364;-59
2023/01/16 12:24:43;;;;;;;4.57;1.90;;;;;;;;;;5043696;28;20071;-60
2023/01/16 12:27:09;;;;;;;6.03;2.00;;;;;;;;;;5045815;28;20094;-59
2023/01/16 12:29:54;;;;;;;4.53;2.03;;;;;;;;;;5045575;28;20044;-60
2023/01/16 12:32:30;;;;;;;5.05;2.05;;;;;;;;;;5039534;28;20412;-60
2023/01/16 12:34:56;;;;;;;4.57;1.65;;;;;;;;;;5031732;28;20059;-61
2023/01/16 12:37:22;;;;;;;7.13;1.80;;;;;;;;;;5050477;28;20033;-59
2023/01/16 12:40:07;;;;;;;2.60;1.70;;;;;;;;;;5050637;28;20123;-60
2023/01/16 12:45:27;;;;;;;2.10;1.75;;;;;;;;;;5049045;28;20406;-61
2023/01/16 12:48:11;;;;;;;4.07;1.70;;;;;;;;;;5050626;28;20044;-60
2023/01/16 12:50:37;;;;;;;4.07;2.17;;;;;;;;;;5050356;28;20041;-60
2023/01/16 12:53:22;;;;;;;4.35;2.00;;;;;;;;;;5050888;28;20048;-60
2023/01/16 12:55:57;;;;;;;3.72;1.80;;;;;;;;;;5050075;28;20045;-62
2023/01/16 12:58:26;;;;;;;1.80;1.70;;;;;;;;;;5051478;28;20032;-60
2023/01/16 13:01:07;;;;;;;2.53;1.90;;;;;;;;;;5050168;28;20045;-61
2023/01/16 13:03:39;;;;;;;1.98;1.77;;;;;;;;;;5051035;28;20148;-61
2023/01/16 13:06:06;;;;;;;3.58;1.75;;;;;;;;;;5052246;28;20041;-60
2023/01/16 13:08:38;;;;;;;5.85;2.30;;;;;;;;;;5048703;28;20035;-59
2023/01/16 13:14:10;;;;;;;5.20;2.15;;;;;;;;;;5049673;28;20124;-60
2023/01/16 13:17:01;;;;;;;3.83;2.40;;;;;;;;;;5014956;28;20243;-59
2023/01/16 13:19:29;;;;;;;5.13;2.50;;;;;;;;;;5050942;28;20057;-60
2023/01/16 13:22:15;;;;;;;4.65;2.20;;;;;;;;;;5049501;28;20029;-60
2023/01/16 13:24:51;;;;;;;2.65;2.30;;;;;;;;;;5048323;28;20459;-60
2023/01/16 13:27:20;;;;;;;3.53;2.25;;;;;;;;;;5051463;28;20550;-60
2023/01/16 13:29:48;;;;;;;4.75;2.20;;;;;;;;;;5051257;28;20041;-60
2023/01/16 13:32:26;;;;;;;3.33;2.20;;;;;;;;;;5051303;28;20392;-59
2023/01/16 13:34:54;;;;;;;4.22;2.13;;;;;;;;;;5049838;28;20124;-59
2023/01/16 13:37:21;;;;;;;3.88;2.20;;;;;;;;;;5050986;28;20089;-59
2023/01/16 13:39:59;;;;;;;2.97;2.25;;;;;;;;;;5048614;28;20489;-59
2023/01/16 13:42:26;;;;;;;4.45;2.00;;;;;;;;;;5044091;28;20528;-60
2023/01/16 13:47:44;;;;;;;2.65;2.08;;;;;;;;;;5036587;28;20033;-60
2023/01/16 13:50:15;;;;;;;3.47;1.90;;;;;;;;;;5048691;28;20039;-58
2023/01/16 13:52:42;;;;;;;3.03;1.90;;;;;;;;;;5050555;28;20037;-60
2023/01/16 13:55:28;;;;;;;4.93;2.05;;;;;;;;;;5050211;28;20068;-60
2023/01/16 13:57:55;;;;;;;2.88;1.80;;;;;;;;;;5051108;28;20036;-61
2023/01/16 14:00:22;;;;;;;2.70;2.03;;;;;;;;;;5050865;28;20072;-59
2023/01/16 14:03:02;;;;;;;4.45;2.08;;;;;;;;;;5050246;28;20051;-60
2023/01/16 14:05:37;;;;;;;3.13;1.80;;;;;;;;;;5045099;28;20041;-61
2023/01/16 14:11:15;;;;;;;4.50;1.70;;;;;;;;;;5048350;28;20555;-60
2023/01/16 14:13:42;;;;;;;3.90;1.60;;;;;;;;;;5045484;28;20111;-59
2023/01/16 14:16:30;;;;;;;3.00;1.70;;;;;;;;;;5045024;28;20096;-60
2023/01/16 14:18:56;;;;;;;3.30;2.05;;;;;;;;;;5043858;28;20063;-60
2023/01/16 14:21:40;;;;;;;2.40;1.30;;;;;;;;;;5048489;28;20049;-60
2023/01/16 14:24:12;;;;;;;3.13;1.25;;;;;;;;;;5043039;28;20376;-59
2023/01/16 14:26:44;;;;;;;3.63;1.40;;;;;;;;;;5048172;28;20040;-60
2023/01/16 14:29:22;;;;;;;3.63;1.35;;;;;;;;;;5042543;28;20037;-61
2023/01/16 14:31:53;;;;;;;2.78;1.38;;;;;;;;;;5050793;28;20199;-59
2023/01/16 14:34:36;;;;;;;3.00;1.20;;;;;;;;;;5048956;28;20043;-60
2023/01/16 14:37:11;;;;;;;4.68;1.30;;;;;;;;;;5040792;28;20041;-59
2023/01/16 14:39:39;;;;;;;3.05;1.23;;;;;;;;;;5047426;28;20565;-59
2023/01/16 14:56:31;;;;;;;2.88;1.33;;;;;;;;;;5049692;28;20491;-60
2023/01/16 14:59:04;;;;;;;3.45;1.30;;;;;;;;;;5049266;28;20044;-60
2023/01/16 15:04:22;;;;;;;1.70;1.20;;;;;;;;;;5046958;28;20071;-59
2023/01/16 15:06:51;;;;;;;2.50;1.25;;;;;;;;;;5049515;28;20055;-60
2023/01/16 15:09:18;;;;;;;1.45;1.25;;;;;;;;;;5049427;28;20547;-59
2023/01/16 15:12:00;;;;;;;3.20;1.38;;;;;;;;;;5047660;28;20052;-68
2023/01/16 15:14:26;;;;;;;2.22;1.35;;;;;;;;;;5047746;28;20045;-66
2023/01/16 15:22:47;;;;;;;3.50;1.50;;;;;;;;;;5050127;28;20049;-66
2023/01/16 15:25:31;;;;;;;2.47;1.40;;;;;;;;;;5050204;28;20426;-67
2023/01/16 15:28:03;;;;;;;2.55;1.58;;;;;;;;;;5012838;28;20049;-66
2023/01/16 15:30:30;;;;;;;2.30;1.38;;;;;;;;;;5039393;28;20037;-66
2023/01/16 15:35:42;;;;;;;2.40;1.80;;;;;;;;;;5050096;28;20056;-66
2023/01/16 15:38:09;;;;;;;3.45;1.50;;;;;;;;;;5031781;28;20475;-66
2023/01/16 15:40:35;;;;;;;4.63;1.70;;;;;;;;;;5050600;28;20417;-66
2023/01/16 15:46:55;;;;;;;2.28;1.90;;;;;;;;;;5049599;28;20128;-66
2023/01/16 15:49:01;;;;;;;4.93;2.35;;;;;;;;;;5035831;28;20128;-64
2023/01/16 15:51:28;;;;;;;3.55;2.50;;;;;;;;;;5049930;28;20053;-65
2023/01/16 15:53:56;;;;;;;3.42;2.20;;;;;;;;;;5049623;28;20551;-65
2023/01/16 15:56:23;;;;;;;4.63;2.22;;;;;;;;;;5032565;28;20049;-65
2023/01/16 15:58:52;;;;;;;3.22;2.45;;;;;;;;;;5050215;28;20694;-65
2023/01/16 16:01:25;;;;;;;3.42;2.65;;;;;;;;;;5049791;28;20095;-65
2023/01/16 16:03:51;;;;;;;4.32;2.25;;;;;;;;;;5049823;28;20127;-65
2023/01/16 16:06:19;;;;;;;2.80;1.75;;;;;;;;;;5050186;28;20125;-65
2023/01/16 16:08:49;;;;;;;3.08;1.90;;;;;;;;;;5049617;28;20076;-65
2023/01/16 16:14:03;;;;;;;2.65;1.77;;;;;;;;;;5036185;28;20451;-65
2023/01/16 16:19:30;;;;;;;2.63;2.00;;;;;;;;;;5053970;28;20053;-65
2023/01/16 16:24:41;;;;;;;2.20;1.73;;;;;;;;;;5053791;28;20329;-65
2023/01/16 16:27:11;;;;;;;7.30;3.20;;;;;;;;;;5054153;28;20419;-65
2023/01/16 16:29:38;;;;;;;3.42;2.40;;;;;;;;;;5053201;28;20059;-65
2023/01/16 16:32:05;;;;;;;3.35;2.38;;;;;;;;;;5054144;28;20048;-65
2023/01/16 16:34:32;;;;;;;7.50;3.20;;;;;;;;;;5053637;28;20506;-65
2023/01/16 16:36:59;;;;;;;6.47;3.40;;;;;;;;;;5053857;28;20053;-65
2023/01/16 16:39:25;;;;;;;5.63;3.58;;;;;;;;;;5036274;28;20368;-65
2023/01/16 16:44:41;;;;;;;4.35;3.30;;;;;;;;;;5052911;28;20084;-65
2023/01/16 16:47:23;;;;;;;4.38;2.22;;;;;;;;;;5053660;28;20090;-65